sensor_id;sensor_type;location;lat;lon;timestamp;P1;durP1;ratioP1;P2;durP2;ratioP2
76259;SDS011;65076;52.362;6.588;2023-05-07T00:00:52;22.35;;;15.80;;
76259;SDS011;65076;52.362;6.588;2023-05-07T00:05:21;20.98;;;15.13;;
76259;SDS011;65076;52.362;6.588;2023-05-07T00:09:51;20.67;;;14.65;;
76259;SDS011;65076;52.362;6.588;2023-05-07T00:14:20;19.05;;;14.70;;
76259;SDS011;65076;52.362;6.588;2023-05-07T00:18:51;20.35;;;15.15;;
76259;SDS011;65076;52.362;6.588;2023-05-07T00:23:21;20.17;;;14.95;;
76259;SDS011;65076;52.362;6.588;2023-05-07T00:27:50;25.80;;;16.35;;
76259;SDS011;65076;52.362;6.588;2023-05-07T00:32:22;24.40;;;16.02;;
76259;SDS011;65076;52.362;6.588;2023-05-07T00:36:53;24.23;;;15.70;;
76259;SDS011;65076;52.362;6.588;2023-05-07T00:41:23;20.80;;;15.43;;
76259;SDS011;65076;52.362;6.588;2023-05-07T00:45:53;23.10;;;15.68;;
76259;SDS011;65076;52.362;6.588;2023-05-07T00:50:23;20.83;;;15.10;;
76259;SDS011;65076;52.362;6.588;2023-05-07T00:54:55;21.13;;;15.25;;
76259;SDS011;65076;52.362;6.588;2023-05-07T00:59:25;22.65;;;15.27;;
76259;SDS011;65076;52.362;6.588;2023-05-07T01:03:55;21.25;;;16.30;;
76259;SDS011;65076;52.362;6.588;2023-05-07T01:08:26;23.80;;;18.35;;
76259;SDS011;65076;52.362;6.588;2023-05-07T01:12:59;23.20;;;17.08;;
76259;SDS011;65076;52.362;6.588;2023-05-07T01:17:30;24.33;;;17.10;;
76259;SDS011;65076;52.362;6.588;2023-05-07T01:22:03;26.23;;;17.35;;
76259;SDS011;65076;52.362;6.588;2023-05-07T01:26:34;24.67;;;18.60;;
76259;SDS011;65076;52.362;6.588;2023-05-07T01:31:04;22.92;;;16.48;;
76259;SDS011;65076;52.362;6.588;2023-05-07T01:35:35;22.38;;;15.63;;
76259;SDS011;65076;52.362;6.588;2023-05-07T01:40:09;26.67;;;15.75;;
76259;SDS011;65076;52.362;6.588;2023-05-07T01:44:39;22.90;;;15.65;;
76259;SDS011;65076;52.362;6.588;2023-05-07T01:49:09;20.92;;;14.57;;
76259;SDS011;65076;52.362;6.588;2023-05-07T01:53:39;19.10;;;13.13;;
76259;SDS011;65076;52.362;6.588;2023-05-07T01:58:12;18.17;;;12.65;;
76259;SDS011;65076;52.362;6.588;2023-05-07T02:02:42;17.92;;;12.93;;
76259;SDS011;65076;52.362;6.588;2023-05-07T02:07:12;20.52;;;12.70;;
76259;SDS011;65076;52.362;6.588;2023-05-07T02:11:44;20.67;;;13.25;;
76259;SDS011;65076;52.362;6.588;2023-05-07T02:16:17;19.52;;;12.38;;
76259;SDS011;65076;52.362;6.588;2023-05-07T02:20:46;22.38;;;13.60;;
76259;SDS011;65076;52.362;6.588;2023-05-07T02:25:19;22.15;;;14.00;;
76259;SDS011;65076;52.362;6.588;2023-05-07T02:29:48;19.30;;;13.25;;
76259;SDS011;65076;52.362;6.588;2023-05-07T02:34:20;20.27;;;13.05;;
76259;SDS011;65076;52.362;6.588;2023-05-07T02:38:50;25.50;;;15.80;;
76259;SDS011;65076;52.362;6.588;2023-05-07T02:43:19;21.80;;;13.50;;
76259;SDS011;65076;52.362;6.588;2023-05-07T02:47:49;22.92;;;15.48;;
76259;SDS011;65076;52.362;6.588;2023-05-07T02:52:22;22.05;;;14.10;;
76259;SDS011;65076;52.362;6.588;2023-05-07T02:56:51;23.88;;;15.38;;
76259;SDS011;65076;52.362;6.588;2023-05-07T03:01:21;22.42;;;15.60;;
76259;SDS011;65076;52.362;6.588;2023-05-07T03:05:50;26.63;;;15.18;;
76259;SDS011;65076;52.362;6.588;2023-05-07T03:10:21;24.27;;;14.27;;
76259;SDS011;65076;52.362;6.588;2023-05-07T03:14:50;28.30;;;16.88;;
76259;SDS011;65076;52.362;6.588;2023-05-07T03:19:20;27.63;;;16.20;;
76259;SDS011;65076;52.362;6.588;2023-05-07T03:23:49;27.48;;;17.02;;
76259;SDS011;65076;52.362;6.588;2023-05-07T03:28:20;24.67;;;14.65;;
76259;SDS011;65076;52.362;6.588;2023-05-07T03:32:49;26.17;;;17.92;;
76259;SDS011;65076;52.362;6.588;2023-05-07T03:37:22;25.27;;;16.80;;
76259;SDS011;65076;52.362;6.588;2023-05-07T03:41:52;29.90;;;15.75;;
76259;SDS011;65076;52.362;6.588;2023-05-07T03:46:23;23.75;;;15.13;;
76259;SDS011;65076;52.362;6.588;2023-05-07T03:50:52;21.10;;;14.27;;
76259;SDS011;65076;52.362;6.588;2023-05-07T03:55:22;23.70;;;13.32;;
76259;SDS011;65076;52.362;6.588;2023-05-07T03:59:52;25.52;;;15.43;;
76259;SDS011;65076;52.362;6.588;2023-05-07T04:04:24;25.52;;;15.98;;
76259;SDS011;65076;52.362;6.588;2023-05-07T04:08:54;26.90;;;16.98;;
76259;SDS011;65076;52.362;6.588;2023-05-07T04:13:24;29.13;;;16.42;;
76259;SDS011;65076;52.362;6.588;2023-05-07T04:17:54;26.85;;;16.23;;
76259;SDS011;65076;52.362;6.588;2023-05-07T04:22:25;29.27;;;17.02;;
76259;SDS011;65076;52.362;6.588;2023-05-07T04:26:54;29.35;;;16.23;;
76259;SDS011;65076;52.362;6.588;2023-05-07T04:31:23;26.73;;;17.73;;
76259;SDS011;65076;52.362;6.588;2023-05-07T04:35:53;23.95;;;15.68;;
76259;SDS011;65076;52.362;6.588;2023-05-07T04:40:24;26.75;;;17.58;;
76259;SDS011;65076;52.362;6.588;2023-05-07T04:44:54;26.33;;;15.73;;
76259;SDS011;65076;52.362;6.588;2023-05-07T04:49:24;28.15;;;16.55;;
76259;SDS011;65076;52.362;6.588;2023-05-07T04:53:54;31.55;;;17.45;;
76259;SDS011;65076;52.362;6.588;2023-05-07T04:58:25;30.65;;;16.98;;
76259;SDS011;65076;52.362;6.588;2023-05-07T05:02:54;27.48;;;16.48;;
76259;SDS011;65076;52.362;6.588;2023-05-07T05:07:25;26.73;;;15.73;;
76259;SDS011;65076;52.362;6.588;2023-05-07T05:11:54;30.15;;;17.38;;
76259;SDS011;65076;52.362;6.588;2023-05-07T05:16:25;33.25;;;17.98;;
76259;SDS011;65076;52.362;6.588;2023-05-07T05:20:54;32.78;;;19.35;;
76259;SDS011;65076;52.362;6.588;2023-05-07T05:25:24;32.40;;;18.25;;
76259;SDS011;65076;52.362;6.588;2023-05-07T05:29:54;34.47;;;18.67;;
76259;SDS011;65076;52.362;6.588;2023-05-07T05:34:28;28.23;;;17.70;;
76259;SDS011;65076;52.362;6.588;2023-05-07T05:38:58;33.72;;;19.33;;
76259;SDS011;65076;52.362;6.588;2023-05-07T05:43:27;32.95;;;19.67;;
76259;SDS011;65076;52.362;6.588;2023-05-07T05:47:57;32.60;;;19.30;;
76259;SDS011;65076;52.362;6.588;2023-05-07T05:52:28;30.83;;;18.67;;
76259;SDS011;65076;52.362;6.588;2023-05-07T05:56:58;31.23;;;19.15;;
76259;SDS011;65076;52.362;6.588;2023-05-07T06:01:27;33.45;;;20.77;;
76259;SDS011;65076;52.362;6.588;2023-05-07T06:05:58;33.80;;;18.38;;
76259;SDS011;65076;52.362;6.588;2023-05-07T06:10:29;33.30;;;19.27;;
76259;SDS011;65076;52.362;6.588;2023-05-07T06:14:59;32.25;;;19.83;;
76259;SDS011;65076;52.362;6.588;2023-05-07T06:19:31;32.95;;;21.00;;
76259;SDS011;65076;52.362;6.588;2023-05-07T06:24:01;29.48;;;19.48;;
76259;SDS011;65076;52.362;6.588;2023-05-07T06:28:31;29.65;;;19.33;;
76259;SDS011;65076;52.362;6.588;2023-05-07T06:33:01;32.83;;;19.42;;
76259;SDS011;65076;52.362;6.588;2023-05-07T06:37:30;28.77;;;18.60;;
76259;SDS011;65076;52.362;6.588;2023-05-07T06:42:00;31.08;;;20.55;;
76259;SDS011;65076;52.362;6.588;2023-05-07T06:46:34;32.08;;;21.17;;
76259;SDS011;65076;52.362;6.588;2023-05-07T06:51:07;30.67;;;19.38;;
76259;SDS011;65076;52.362;6.588;2023-05-07T06:55:36;31.00;;;17.83;;
76259;SDS011;65076;52.362;6.588;2023-05-07T07:00:09;27.75;;;17.20;;
76259;SDS011;65076;52.362;6.588;2023-05-07T07:04:40;30.10;;;19.48;;
76259;SDS011;65076;52.362;6.588;2023-05-07T07:09:10;29.00;;;18.35;;
76259;SDS011;65076;52.362;6.588;2023-05-07T07:13:42;32.45;;;21.55;;
76259;SDS011;65076;52.362;6.588;2023-05-07T07:18:12;30.30;;;17.20;;
76259;SDS011;65076;52.362;6.588;2023-05-07T07:22:45;30.00;;;18.52;;
76259;SDS011;65076;52.362;6.588;2023-05-07T07:27:14;29.83;;;19.27;;
76259;SDS011;65076;52.362;6.588;2023-05-07T07:31:44;29.73;;;18.50;;
76259;SDS011;65076;52.362;6.588;2023-05-07T07:36:18;26.88;;;17.55;;
76259;SDS011;65076;52.362;6.588;2023-05-07T07:40:49;28.77;;;18.92;;
76259;SDS011;65076;52.362;6.588;2023-05-07T07:45:20;28.52;;;19.52;;
76259;SDS011;65076;52.362;6.588;2023-05-07T07:49:52;28.23;;;17.88;;
76259;SDS011;65076;52.362;6.588;2023-05-07T07:54:23;26.88;;;19.42;;
76259;SDS011;65076;52.362;6.588;2023-05-07T07:58:55;26.13;;;18.15;;
76259;SDS011;65076;52.362;6.588;2023-05-07T08:03:25;24.38;;;15.98;;
76259;SDS011;65076;52.362;6.588;2023-05-07T08:07:54;27.73;;;17.60;;
76259;SDS011;65076;52.362;6.588;2023-05-07T08:12:23;27.35;;;19.55;;
76259;SDS011;65076;52.362;6.588;2023-05-07T08:16:55;26.48;;;17.75;;
76259;SDS011;65076;52.362;6.588;2023-05-07T08:21:25;27.23;;;17.70;;
76259;SDS011;65076;52.362;6.588;2023-05-07T08:25:54;27.85;;;18.67;;
76259;SDS011;65076;52.362;6.588;2023-05-07T08:30:24;25.05;;;17.00;;
76259;SDS011;65076;52.362;6.588;2023-05-07T08:34:55;25.52;;;17.20;;
76259;SDS011;65076;52.362;6.588;2023-05-07T08:39:24;24.15;;;17.88;;
76259;SDS011;65076;52.362;6.588;2023-05-07T08:43:56;25.50;;;16.70;;
76259;SDS011;65076;52.362;6.588;2023-05-07T08:48:30;24.45;;;18.55;;
76259;SDS011;65076;52.362;6.588;2023-05-07T08:53:02;24.48;;;18.00;;
76259;SDS011;65076;52.362;6.588;2023-05-07T08:57:32;24.30;;;18.05;;
76259;SDS011;65076;52.362;6.588;2023-05-07T09:02:03;23.15;;;16.45;;
76259;SDS011;65076;52.362;6.588;2023-05-07T09:06:34;24.83;;;16.42;;
76259;SDS011;65076;52.362;6.588;2023-05-07T09:11:05;24.27;;;16.20;;
76259;SDS011;65076;52.362;6.588;2023-05-07T09:15:38;25.23;;;17.17;;
76259;SDS011;65076;52.362;6.588;2023-05-07T09:20:09;21.65;;;14.43;;
76259;SDS011;65076;52.362;6.588;2023-05-07T09:24:40;26.00;;;16.90;;
76259;SDS011;65076;52.362;6.588;2023-05-07T09:29:11;23.52;;;16.35;;
76259;SDS011;65076;52.362;6.588;2023-05-07T09:33:41;27.05;;;18.40;;
76259;SDS011;65076;52.362;6.588;2023-05-07T09:38:12;21.98;;;16.48;;
76259;SDS011;65076;52.362;6.588;2023-05-07T09:42:44;22.88;;;16.00;;
76259;SDS011;65076;52.362;6.588;2023-05-07T09:47:18;25.30;;;18.10;;
76259;SDS011;65076;52.362;6.588;2023-05-07T09:51:49;20.70;;;15.43;;
76259;SDS011;65076;52.362;6.588;2023-05-07T09:56:19;24.73;;;15.98;;
76259;SDS011;65076;52.362;6.588;2023-05-07T10:00:49;22.02;;;15.20;;
76259;SDS011;65076;52.362;6.588;2023-05-07T10:09:55;19.88;;;13.70;;
76259;SDS011;65076;52.362;6.588;2023-05-07T10:14:24;21.27;;;14.50;;
76259;SDS011;65076;52.362;6.588;2023-05-07T10:18:56;21.55;;;16.85;;
76259;SDS011;65076;52.362;6.588;2023-05-07T10:23:28;20.90;;;14.57;;
76259;SDS011;65076;52.362;6.588;2023-05-07T10:28:03;23.60;;;16.42;;
76259;SDS011;65076;52.362;6.588;2023-05-07T10:32:38;21.88;;;15.05;;
76259;SDS011;65076;52.362;6.588;2023-05-07T10:37:09;21.52;;;16.23;;
76259;SDS011;65076;52.362;6.588;2023-05-07T10:41:41;21.83;;;14.32;;
76259;SDS011;65076;52.362;6.588;2023-05-07T10:46:23;22.20;;;15.32;;
76259;SDS011;65076;52.362;6.588;2023-05-07T10:55:43;23.50;;;16.33;;
76259;SDS011;65076;52.362;6.588;2023-05-07T11:05:26;20.95;;;14.70;;
76259;SDS011;65076;52.362;6.588;2023-05-07T11:09:59;19.70;;;15.05;;
76259;SDS011;65076;52.362;6.588;2023-05-07T11:14:44;25.73;;;16.95;;
76259;SDS011;65076;52.362;6.588;2023-05-07T11:19:15;22.60;;;15.98;;
76259;SDS011;65076;52.362;6.588;2023-05-07T11:23:56;24.30;;;16.45;;
76259;SDS011;65076;52.362;6.588;2023-05-07T11:28:26;20.73;;;16.00;;
76259;SDS011;65076;52.362;6.588;2023-05-07T11:32:58;21.38;;;15.80;;
76259;SDS011;65076;52.362;6.588;2023-05-07T11:37:29;21.85;;;16.55;;
76259;SDS011;65076;52.362;6.588;2023-05-07T11:41:59;20.92;;;15.00;;
76259;SDS011;65076;52.362;6.588;2023-05-07T11:46:29;18.10;;;13.20;;
76259;SDS011;65076;52.362;6.588;2023-05-07T11:51:05;20.83;;;16.15;;
76259;SDS011;65076;52.362;6.588;2023-05-07T11:55:34;20.92;;;16.27;;
76259;SDS011;65076;52.362;6.588;2023-05-07T12:00:06;19.42;;;14.88;;
76259;SDS011;65076;52.362;6.588;2023-05-07T12:04:38;20.58;;;14.77;;
76259;SDS011;65076;52.362;6.588;2023-05-07T12:09:09;16.33;;;13.85;;
76259;SDS011;65076;52.362;6.588;2023-05-07T12:13:39;17.73;;;15.10;;
76259;SDS011;65076;52.362;6.588;2023-05-07T12:18:09;17.38;;;13.13;;
76259;SDS011;65076;52.362;6.588;2023-05-07T12:22:40;22.50;;;15.50;;
76259;SDS011;65076;52.362;6.588;2023-05-07T12:27:11;18.98;;;14.93;;
76259;SDS011;65076;52.362;6.588;2023-05-07T12:31:43;22.35;;;14.77;;
76259;SDS011;65076;52.362;6.588;2023-05-07T12:36:18;18.40;;;13.93;;
76259;SDS011;65076;52.362;6.588;2023-05-07T12:40:53;19.00;;;13.35;;
76259;SDS011;65076;52.362;6.588;2023-05-07T12:45:29;18.90;;;16.15;;
76259;SDS011;65076;52.362;6.588;2023-05-07T12:49:59;17.80;;;13.93;;
76259;SDS011;65076;52.362;6.588;2023-05-07T12:54:29;19.20;;;15.70;;
76259;SDS011;65076;52.362;6.588;2023-05-07T12:58:59;17.17;;;13.20;;
76259;SDS011;65076;52.362;6.588;2023-05-07T13:03:31;14.18;;;10.07;;
76259;SDS011;65076;52.362;6.588;2023-05-07T13:08:04;16.80;;;12.13;;
76259;SDS011;65076;52.362;6.588;2023-05-07T13:12:34;17.83;;;12.45;;
76259;SDS011;65076;52.362;6.588;2023-05-07T13:17:05;16.30;;;13.43;;
76259;SDS011;65076;52.362;6.588;2023-05-07T13:21:35;15.38;;;11.88;;
76259;SDS011;65076;52.362;6.588;2023-05-07T13:26:05;16.48;;;12.23;;
76259;SDS011;65076;52.362;6.588;2023-05-07T13:30:36;16.38;;;13.00;;
76259;SDS011;65076;52.362;6.588;2023-05-07T13:35:06;15.07;;;12.15;;
76259;SDS011;65076;52.362;6.588;2023-05-07T13:39:39;13.73;;;10.13;;
76259;SDS011;65076;52.362;6.588;2023-05-07T13:44:08;17.02;;;12.57;;
76259;SDS011;65076;52.362;6.588;2023-05-07T13:48:39;14.43;;;11.27;;
76259;SDS011;65076;52.362;6.588;2023-05-07T13:53:09;15.80;;;12.10;;
76259;SDS011;65076;52.362;6.588;2023-05-07T13:57:40;14.35;;;10.93;;
76259;SDS011;65076;52.362;6.588;2023-05-07T14:02:09;14.23;;;12.43;;
76259;SDS011;65076;52.362;6.588;2023-05-07T14:06:41;16.33;;;12.40;;
76259;SDS011;65076;52.362;6.588;2023-05-07T14:11:15;14.80;;;11.57;;
76259;SDS011;65076;52.362;6.588;2023-05-07T14:15:45;15.95;;;11.32;;
76259;SDS011;65076;52.362;6.588;2023-05-07T14:20:15;13.18;;;11.07;;
76259;SDS011;65076;52.362;6.588;2023-05-07T14:24:44;14.80;;;11.35;;
76259;SDS011;65076;52.362;6.588;2023-05-07T14:29:16;14.30;;;10.57;;
76259;SDS011;65076;52.362;6.588;2023-05-07T14:33:50;14.75;;;9.48;;
76259;SDS011;65076;52.362;6.588;2023-05-07T14:38:20;14.40;;;11.40;;
76259;SDS011;65076;52.362;6.588;2023-05-07T14:42:50;15.15;;;12.18;;
76259;SDS011;65076;52.362;6.588;2023-05-07T14:47:19;15.00;;;10.07;;
76259;SDS011;65076;52.362;6.588;2023-05-07T14:51:50;13.90;;;10.57;;
76259;SDS011;65076;52.362;6.588;2023-05-07T14:56:22;14.45;;;9.95;;
76259;SDS011;65076;52.362;6.588;2023-05-07T15:00:55;12.75;;;9.38;;
76259;SDS011;65076;52.362;6.588;2023-05-07T15:05:26;15.75;;;9.80;;
76259;SDS011;65076;52.362;6.588;2023-05-07T15:09:57;11.75;;;9.82;;
76259;SDS011;65076;52.362;6.588;2023-05-07T15:14:26;12.25;;;9.27;;
76259;SDS011;65076;52.362;6.588;2023-05-07T15:18:55;13.18;;;9.02;;
76259;SDS011;65076;52.362;6.588;2023-05-07T15:23:27;12.77;;;9.88;;
76259;SDS011;65076;52.362;6.588;2023-05-07T15:27:58;10.85;;;9.02;;
76259;SDS011;65076;52.362;6.588;2023-05-07T15:32:28;12.07;;;9.40;;
76259;SDS011;65076;52.362;6.588;2023-05-07T15:36:57;10.98;;;8.43;;
76259;SDS011;65076;52.362;6.588;2023-05-07T15:41:30;11.95;;;9.60;;
76259;SDS011;65076;52.362;6.588;2023-05-07T15:46:02;13.07;;;8.40;;
76259;SDS011;65076;52.362;6.588;2023-05-07T15:50:31;10.70;;;8.20;;
76259;SDS011;65076;52.362;6.588;2023-05-07T15:55:00;10.40;;;8.43;;
76259;SDS011;65076;52.362;6.588;2023-05-07T15:59:32;10.27;;;7.95;;
76259;SDS011;65076;52.362;6.588;2023-05-07T16:04:06;11.43;;;8.07;;
76259;SDS011;65076;52.362;6.588;2023-05-07T16:08:38;12.40;;;8.98;;
76259;SDS011;65076;52.362;6.588;2023-05-07T16:13:09;10.38;;;8.48;;
76259;SDS011;65076;52.362;6.588;2023-05-07T16:17:44;11.45;;;7.90;;
76259;SDS011;65076;52.362;6.588;2023-05-07T16:22:18;10.82;;;8.45;;
76259;SDS011;65076;52.362;6.588;2023-05-07T16:26:48;9.68;;;7.05;;
76259;SDS011;65076;52.362;6.588;2023-05-07T16:31:17;9.68;;;7.55;;
76259;SDS011;65076;52.362;6.588;2023-05-07T16:35:51;9.73;;;7.45;;
76259;SDS011;65076;52.362;6.588;2023-05-07T16:40:22;11.43;;;8.10;;
76259;SDS011;65076;52.362;6.588;2023-05-07T16:44:51;9.48;;;7.70;;
76259;SDS011;65076;52.362;6.588;2023-05-07T16:49:21;11.30;;;8.52;;
76259;SDS011;65076;52.362;6.588;2023-05-07T16:53:50;9.43;;;7.20;;
76259;SDS011;65076;52.362;6.588;2023-05-07T16:58:23;11.30;;;7.45;;
76259;SDS011;65076;52.362;6.588;2023-05-07T17:03:03;11.90;;;7.82;;
76259;SDS011;65076;52.362;6.588;2023-05-07T17:07:33;9.65;;;7.75;;
76259;SDS011;65076;52.362;6.588;2023-05-07T17:12:05;10.75;;;8.52;;
76259;SDS011;65076;52.362;6.588;2023-05-07T17:16:37;9.32;;;7.35;;
76259;SDS011;65076;52.362;6.588;2023-05-07T17:21:07;8.85;;;7.35;;
76259;SDS011;65076;52.362;6.588;2023-05-07T17:25:36;10.43;;;7.22;;
76259;SDS011;65076;52.362;6.588;2023-05-07T17:30:06;8.82;;;6.72;;
76259;SDS011;65076;52.362;6.588;2023-05-07T17:34:40;10.65;;;7.75;;
76259;SDS011;65076;52.362;6.588;2023-05-07T17:39:10;13.95;;;8.48;;
76259;SDS011;65076;52.362;6.588;2023-05-07T17:43:40;9.63;;;6.57;;
76259;SDS011;65076;52.362;6.588;2023-05-07T17:48:09;8.10;;;6.72;;
76259;SDS011;65076;52.362;6.588;2023-05-07T17:52:40;8.50;;;6.40;;
76259;SDS011;65076;52.362;6.588;2023-05-07T17:57:20;9.18;;;6.50;;
76259;SDS011;65076;52.362;6.588;2023-05-07T18:01:51;7.00;;;5.97;;
76259;SDS011;65076;52.362;6.588;2023-05-07T18:06:21;10.15;;;6.55;;
76259;SDS011;65076;52.362;6.588;2023-05-07T18:10:53;12.02;;;6.63;;
76259;SDS011;65076;52.362;6.588;2023-05-07T18:15:27;9.77;;;7.28;;
76259;SDS011;65076;52.362;6.588;2023-05-07T18:19:57;9.45;;;7.05;;
76259;SDS011;65076;52.362;6.588;2023-05-07T18:24:29;9.75;;;6.60;;
76259;SDS011;65076;52.362;6.588;2023-05-07T18:29:00;9.98;;;7.53;;
76259;SDS011;65076;52.362;6.588;2023-05-07T18:33:30;9.40;;;7.30;;
76259;SDS011;65076;52.362;6.588;2023-05-07T18:37:59;8.40;;;7.10;;
76259;SDS011;65076;52.362;6.588;2023-05-07T18:42:29;8.63;;;7.72;;
76259;SDS011;65076;52.362;6.588;2023-05-07T18:47:04;10.55;;;7.38;;
76259;SDS011;65076;52.362;6.588;2023-05-07T18:51:33;12.05;;;8.68;;
76259;SDS011;65076;52.362;6.588;2023-05-07T18:56:03;10.43;;;8.18;;
76259;SDS011;65076;52.362;6.588;2023-05-07T19:00:38;9.00;;;7.50;;
76259;SDS011;65076;52.362;6.588;2023-05-07T19:05:10;11.02;;;8.30;;
76259;SDS011;65076;52.362;6.588;2023-05-07T19:09:39;10.50;;;7.93;;
76259;SDS011;65076;52.362;6.588;2023-05-07T19:18:56;9.30;;;7.88;;
76259;SDS011;65076;52.362;6.588;2023-05-07T19:23:27;12.57;;;9.32;;
76259;SDS011;65076;52.362;6.588;2023-05-07T19:27:57;9.98;;;8.35;;
76259;SDS011;65076;52.362;6.588;2023-05-07T19:32:26;11.68;;;8.70;;
76259;SDS011;65076;52.362;6.588;2023-05-07T19:36:55;11.23;;;8.70;;
76259;SDS011;65076;52.362;6.588;2023-05-07T19:41:27;11.82;;;9.07;;
76259;SDS011;65076;52.362;6.588;2023-05-07T19:46:01;13.00;;;9.13;;
76259;SDS011;65076;52.362;6.588;2023-05-07T19:50:30;13.27;;;8.50;;
76259;SDS011;65076;52.362;6.588;2023-05-07T19:54:59;13.20;;;9.80;;
76259;SDS011;65076;52.362;6.588;2023-05-07T19:59:32;12.57;;;10.10;;
76259;SDS011;65076;52.362;6.588;2023-05-07T20:04:04;12.13;;;9.63;;
76259;SDS011;65076;52.362;6.588;2023-05-07T20:08:33;12.35;;;10.23;;
76259;SDS011;65076;52.362;6.588;2023-05-07T20:13:03;12.40;;;10.55;;
76259;SDS011;65076;52.362;6.588;2023-05-07T20:17:33;12.40;;;9.65;;
76259;SDS011;65076;52.362;6.588;2023-05-07T20:22:03;12.40;;;9.68;;
76259;SDS011;65076;52.362;6.588;2023-05-07T20:26:32;12.23;;;9.02;;
76259;SDS011;65076;52.362;6.588;2023-05-07T20:31:03;11.30;;;9.27;;
76259;SDS011;65076;52.362;6.588;2023-05-07T20:35:36;10.52;;;9.18;;
76259;SDS011;65076;52.362;6.588;2023-05-07T20:40:07;11.68;;;9.13;;
76259;SDS011;65076;52.362;6.588;2023-05-07T20:44:37;11.20;;;9.23;;
76259;SDS011;65076;52.362;6.588;2023-05-07T20:49:06;11.40;;;9.48;;
76259;SDS011;65076;52.362;6.588;2023-05-07T20:53:40;12.10;;;9.77;;
76259;SDS011;65076;52.362;6.588;2023-05-07T20:58:09;12.07;;;10.23;;
76259;SDS011;65076;52.362;6.588;2023-05-07T21:02:39;11.13;;;9.63;;
76259;SDS011;65076;52.362;6.588;2023-05-07T21:07:09;12.15;;;10.02;;
76259;SDS011;65076;52.362;6.588;2023-05-07T21:11:39;10.50;;;9.20;;
76259;SDS011;65076;52.362;6.588;2023-05-07T21:16:09;11.50;;;10.10;;
76259;SDS011;65076;52.362;6.588;2023-05-07T21:20:38;12.48;;;10.43;;
76259;SDS011;65076;52.362;6.588;2023-05-07T21:25:08;12.50;;;10.68;;
76259;SDS011;65076;52.362;6.588;2023-05-07T21:29:44;13.85;;;10.48;;
76259;SDS011;65076;52.362;6.588;2023-05-07T21:34:13;12.02;;;10.32;;
76259;SDS011;65076;52.362;6.588;2023-05-07T21:38:43;13.00;;;10.85;;
76259;SDS011;65076;52.362;6.588;2023-05-07T21:43:12;15.10;;;12.10;;
76259;SDS011;65076;52.362;6.588;2023-05-07T21:47:43;12.95;;;10.13;;
76259;SDS011;65076;52.362;6.588;2023-05-07T21:52:12;13.60;;;11.48;;
76259;SDS011;65076;52.362;6.588;2023-05-07T21:56:50;13.57;;;11.90;;
76259;SDS011;65076;52.362;6.588;2023-05-07T22:01:19;12.35;;;10.65;;
76259;SDS011;65076;52.362;6.588;2023-05-07T22:05:50;12.90;;;10.60;;
76259;SDS011;65076;52.362;6.588;2023-05-07T22:10:19;13.90;;;10.60;;
76259;SDS011;65076;52.362;6.588;2023-05-07T22:14:49;13.48;;;11.05;;
76259;SDS011;65076;52.362;6.588;2023-05-07T22:19:19;14.32;;;10.73;;
76259;SDS011;65076;52.362;6.588;2023-05-07T22:23:54;15.73;;;10.98;;
76259;SDS011;65076;52.362;6.588;2023-05-07T22:28:23;13.55;;;10.68;;
76259;SDS011;65076;52.362;6.588;2023-05-07T22:32:53;14.30;;;11.48;;
76259;SDS011;65076;52.362;6.588;2023-05-07T22:37:23;15.73;;;11.43;;
76259;SDS011;65076;52.362;6.588;2023-05-07T22:41:53;13.77;;;11.80;;
76259;SDS011;65076;52.362;6.588;2023-05-07T22:46:24;12.35;;;11.05;;
76259;SDS011;65076;52.362;6.588;2023-05-07T22:50:53;13.35;;;10.65;;
76259;SDS011;65076;52.362;6.588;2023-05-07T22:55:25;13.05;;;10.15;;
76259;SDS011;65076;52.362;6.588;2023-05-07T22:59:58;12.93;;;10.57;;
76259;SDS011;65076;52.362;6.588;2023-05-07T23:04:29;14.50;;;11.73;;
76259;SDS011;65076;52.362;6.588;2023-05-07T23:08:59;14.32;;;11.50;;
76259;SDS011;65076;52.362;6.588;2023-05-07T23:13:32;13.50;;;11.75;;
76259;SDS011;65076;52.362;6.588;2023-05-07T23:18:04;12.95;;;10.40;;
76259;SDS011;65076;52.362;6.588;2023-05-07T23:22:34;13.15;;;10.80;;
76259;SDS011;65076;52.362;6.588;2023-05-07T23:27:03;13.27;;;10.05;;
76259;SDS011;65076;52.362;6.588;2023-05-07T23:31:33;13.70;;;10.00;;
76259;SDS011;65076;52.362;6.588;2023-05-07T23:36:12;14.80;;;11.35;;
76259;SDS011;65076;52.362;6.588;2023-05-07T23:40:43;14.45;;;12.48;;
76259;SDS011;65076;52.362;6.588;2023-05-07T23:45:13;12.40;;;9.88;;
76259;SDS011;65076;52.362;6.588;2023-05-07T23:49:43;14.95;;;11.38;;
76259;SDS011;65076;52.362;6.588;2023-05-07T23:54:14;16.50;;;12.30;;
76259;SDS011;65076;52.362;6.588;2023-05-07T23:58:44;13.75;;;11.07;;
